sensor_id;sensor_type;location;lat;lon;timestamp;P1;durP1;ratioP1;P2;durP2;ratioP2
74100;SDS011;62462;52.530;21.682;2023-01-15T00:01:02;18.27;;;8.55;;
74100;SDS011;62462;52.530;21.682;2023-01-15T00:03:29;18.58;;;8.95;;
74100;SDS011;62462;52.530;21.682;2023-01-15T00:06:01;20.67;;;8.73;;
74100;SDS011;62462;52.530;21.682;2023-01-15T00:08:27;16.45;;;8.57;;
74100;SDS011;62462;52.530;21.682;2023-01-15T00:10:53;16.98;;;8.10;;
74100;SDS011;62462;52.530;21.682;2023-01-15T00:13:20;20.42;;;8.77;;
74100;SDS011;62462;52.530;21.682;2023-01-15T00:15:46;18.90;;;9.55;;
74100;SDS011;62462;52.530;21.682;2023-01-15T00:18:12;20.13;;;9.30;;
74100;SDS011;62462;52.530;21.682;2023-01-15T00:20:38;19.63;;;9.38;;
74100;SDS011;62462;52.530;21.682;2023-01-15T00:23:03;17.90;;;9.18;;
74100;SDS011;62462;52.530;21.682;2023-01-15T00:25:29;20.77;;;9.52;;
74100;SDS011;62462;52.530;21.682;2023-01-15T00:28:14;22.42;;;10.82;;
74100;SDS011;62462;52.530;21.682;2023-01-15T00:30:40;20.75;;;10.05;;
74100;SDS011;62462;52.530;21.682;2023-01-15T00:33:06;22.35;;;10.65;;
74100;SDS011;62462;52.530;21.682;2023-01-15T00:35:33;17.10;;;9.45;;
74100;SDS011;62462;52.530;21.682;2023-01-15T00:37:59;20.98;;;10.13;;
74100;SDS011;62462;52.530;21.682;2023-01-15T00:40:24;19.77;;;9.55;;
74100;SDS011;62462;52.530;21.682;2023-01-15T00:42:50;19.15;;;9.63;;
74100;SDS011;62462;52.530;21.682;2023-01-15T00:45:16;19.42;;;9.80;;
74100;SDS011;62462;52.530;21.682;2023-01-15T00:47:43;19.70;;;10.13;;
74100;SDS011;62462;52.530;21.682;2023-01-15T00:50:10;20.70;;;9.75;;
74100;SDS011;62462;52.530;21.682;2023-01-15T00:52:38;20.40;;;9.95;;
74100;SDS011;62462;52.530;21.682;2023-01-15T00:55:05;23.15;;;10.48;;
74100;SDS011;62462;52.530;21.682;2023-01-15T00:57:32;19.88;;;10.18;;
74100;SDS011;62462;52.530;21.682;2023-01-15T00:59:58;20.13;;;9.73;;
74100;SDS011;62462;52.530;21.682;2023-01-15T01:02:24;22.42;;;9.88;;
74100;SDS011;62462;52.530;21.682;2023-01-15T01:04:50;19.17;;;8.90;;
74100;SDS011;62462;52.530;21.682;2023-01-15T01:07:15;19.05;;;9.77;;
74100;SDS011;62462;52.530;21.682;2023-01-15T01:09:42;20.48;;;9.10;;
74100;SDS011;62462;52.530;21.682;2023-01-15T01:12:08;15.93;;;8.55;;
74100;SDS011;62462;52.530;21.682;2023-01-15T01:14:35;18.45;;;9.23;;
74100;SDS011;62462;52.530;21.682;2023-01-15T01:17:01;18.38;;;9.00;;
74100;SDS011;62462;52.530;21.682;2023-01-15T01:19:27;19.42;;;9.02;;
74100;SDS011;62462;52.530;21.682;2023-01-15T01:21:53;18.80;;;9.38;;
74100;SDS011;62462;52.530;21.682;2023-01-15T01:24:19;17.55;;;8.57;;
74100;SDS011;62462;52.530;21.682;2023-01-15T01:26:47;16.98;;;8.85;;
74100;SDS011;62462;52.530;21.682;2023-01-15T01:29:15;16.50;;;8.52;;
74100;SDS011;62462;52.530;21.682;2023-01-15T01:31:45;17.48;;;8.63;;
74100;SDS011;62462;52.530;21.682;2023-01-15T01:34:11;15.45;;;8.07;;
74100;SDS011;62462;52.530;21.682;2023-01-15T01:36:38;16.52;;;8.13;;
74100;SDS011;62462;52.530;21.682;2023-01-15T01:39:07;21.75;;;8.82;;
74100;SDS011;62462;52.530;21.682;2023-01-15T01:41:36;20.65;;;7.97;;
74100;SDS011;62462;52.530;21.682;2023-01-15T01:44:06;16.13;;;8.02;;
74100;SDS011;62462;52.530;21.682;2023-01-15T01:46:52;16.75;;;8.18;;
74100;SDS011;62462;52.530;21.682;2023-01-15T01:49:18;16.35;;;7.60;;
74100;SDS011;62462;52.530;21.682;2023-01-15T01:51:45;16.80;;;8.27;;
74100;SDS011;62462;52.530;21.682;2023-01-15T01:54:15;17.23;;;7.72;;
74100;SDS011;62462;52.530;21.682;2023-01-15T01:56:44;15.18;;;7.90;;
74100;SDS011;62462;52.530;21.682;2023-01-15T01:59:13;17.45;;;8.15;;
74100;SDS011;62462;52.530;21.682;2023-01-15T02:01:40;15.55;;;7.63;;
74100;SDS011;62462;52.530;21.682;2023-01-15T02:04:07;19.95;;;8.70;;
74100;SDS011;62462;52.530;21.682;2023-01-15T02:06:35;16.88;;;7.63;;
74100;SDS011;62462;52.530;21.682;2023-01-15T02:09:03;16.92;;;8.15;;
74100;SDS011;62462;52.530;21.682;2023-01-15T02:11:29;17.00;;;8.07;;
74100;SDS011;62462;52.530;21.682;2023-01-15T02:13:59;16.48;;;8.38;;
74100;SDS011;62462;52.530;21.682;2023-01-15T02:24:35;17.07;;;8.33;;
74100;SDS011;62462;52.530;21.682;2023-01-15T02:27:20;16.13;;;7.78;;
74100;SDS011;62462;52.530;21.682;2023-01-15T02:35:24;14.57;;;7.25;;
74100;SDS011;62462;52.530;21.682;2023-01-15T02:38:09;17.40;;;7.45;;
74100;SDS011;62462;52.530;21.682;2023-01-15T02:40:39;14.48;;;7.50;;
74100;SDS011;62462;52.530;21.682;2023-01-15T02:43:07;15.25;;;7.63;;
74100;SDS011;62462;52.530;21.682;2023-01-15T02:45:38;17.35;;;7.70;;
74100;SDS011;62462;52.530;21.682;2023-01-15T02:48:09;15.73;;;8.05;;
74100;SDS011;62462;52.530;21.682;2023-01-15T02:50:44;15.93;;;7.93;;
74100;SDS011;62462;52.530;21.682;2023-01-15T02:53:16;16.23;;;8.05;;
74100;SDS011;62462;52.530;21.682;2023-01-15T02:55:48;14.48;;;6.90;;
74100;SDS011;62462;52.530;21.682;2023-01-15T02:58:16;15.57;;;7.72;;
74100;SDS011;62462;52.530;21.682;2023-01-15T03:00:50;15.60;;;7.57;;
74100;SDS011;62462;52.530;21.682;2023-01-15T03:03:30;12.85;;;6.55;;
74100;SDS011;62462;52.530;21.682;2023-01-15T03:08:56;16.80;;;7.68;;
74100;SDS011;62462;52.530;21.682;2023-01-15T03:11:22;13.60;;;7.07;;
74100;SDS011;62462;52.530;21.682;2023-01-15T03:14:06;13.25;;;6.68;;
74100;SDS011;62462;52.530;21.682;2023-01-15T03:16:46;13.90;;;7.03;;
74100;SDS011;62462;52.530;21.682;2023-01-15T03:22:04;13.43;;;7.05;;
74100;SDS011;62462;52.530;21.682;2023-01-15T03:24:37;11.45;;;6.28;;
74100;SDS011;62462;52.530;21.682;2023-01-15T03:27:16;12.93;;;6.63;;
74100;SDS011;62462;52.530;21.682;2023-01-15T03:29:50;13.98;;;6.93;;
74100;SDS011;62462;52.530;21.682;2023-01-15T03:32:26;11.20;;;6.05;;
74100;SDS011;62462;52.530;21.682;2023-01-15T03:34:54;15.40;;;7.15;;
74100;SDS011;62462;52.530;21.682;2023-01-15T03:37:20;14.30;;;7.07;;
74100;SDS011;62462;52.530;21.682;2023-01-15T03:39:48;12.77;;;6.40;;
74100;SDS011;62462;52.530;21.682;2023-01-15T03:45:20;12.82;;;6.97;;
74100;SDS011;62462;52.530;21.682;2023-01-15T03:55:34;11.90;;;6.00;;
74100;SDS011;62462;52.530;21.682;2023-01-15T03:58:13;12.45;;;6.30;;
74100;SDS011;62462;52.530;21.682;2023-01-15T04:00:56;11.48;;;5.72;;
74100;SDS011;62462;52.530;21.682;2023-01-15T04:03:24;11.48;;;6.00;;
74100;SDS011;62462;52.530;21.682;2023-01-15T04:05:53;12.65;;;6.38;;
74100;SDS011;62462;52.530;21.682;2023-01-15T04:08:21;11.65;;;5.80;;
74100;SDS011;62462;52.530;21.682;2023-01-15T04:10:58;10.10;;;5.50;;
74100;SDS011;62462;52.530;21.682;2023-01-15T04:13:25;11.93;;;5.63;;
74100;SDS011;62462;52.530;21.682;2023-01-15T04:15:51;10.98;;;5.88;;
74100;SDS011;62462;52.530;21.682;2023-01-15T04:18:18;12.65;;;5.97;;
74100;SDS011;62462;52.530;21.682;2023-01-15T04:20:44;9.55;;;5.65;;
74100;SDS011;62462;52.530;21.682;2023-01-15T04:23:11;9.32;;;4.90;;
74100;SDS011;62462;52.530;21.682;2023-01-15T04:25:37;10.82;;;5.22;;
74100;SDS011;62462;52.530;21.682;2023-01-15T04:28:03;9.63;;;5.18;;
74100;SDS011;62462;52.530;21.682;2023-01-15T04:30:29;10.93;;;5.78;;
74100;SDS011;62462;52.530;21.682;2023-01-15T04:32:55;10.07;;;5.47;;
74100;SDS011;62462;52.530;21.682;2023-01-15T04:35:21;10.70;;;5.65;;
74100;SDS011;62462;52.530;21.682;2023-01-15T04:37:46;9.57;;;5.80;;
74100;SDS011;62462;52.530;21.682;2023-01-15T04:40:12;10.75;;;4.97;;
74100;SDS011;62462;52.530;21.682;2023-01-15T04:42:58;13.95;;;6.93;;
74100;SDS011;62462;52.530;21.682;2023-01-15T04:45:43;11.38;;;5.85;;
74100;SDS011;62462;52.530;21.682;2023-01-15T04:48:09;10.25;;;5.20;;
74100;SDS011;62462;52.530;21.682;2023-01-15T04:50:37;9.55;;;4.88;;
74100;SDS011;62462;52.530;21.682;2023-01-15T04:53:02;9.85;;;5.20;;
74100;SDS011;62462;52.530;21.682;2023-01-15T04:55:28;11.00;;;5.18;;
74100;SDS011;62462;52.530;21.682;2023-01-15T04:57:54;11.57;;;5.57;;
74100;SDS011;62462;52.530;21.682;2023-01-15T05:00:20;10.52;;;5.07;;
74100;SDS011;62462;52.530;21.682;2023-01-15T05:02:47;10.13;;;5.05;;
74100;SDS011;62462;52.530;21.682;2023-01-15T05:05:13;10.15;;;5.00;;
74100;SDS011;62462;52.530;21.682;2023-01-15T05:07:39;11.15;;;5.25;;
74100;SDS011;62462;52.530;21.682;2023-01-15T05:10:05;11.27;;;5.15;;
74100;SDS011;62462;52.530;21.682;2023-01-15T05:12:31;11.25;;;5.03;;
74100;SDS011;62462;52.530;21.682;2023-01-15T05:14:57;10.55;;;4.93;;
74100;SDS011;62462;52.530;21.682;2023-01-15T05:17:22;14.30;;;5.72;;
74100;SDS011;62462;52.530;21.682;2023-01-15T05:19:48;10.00;;;5.32;;
74100;SDS011;62462;52.530;21.682;2023-01-15T05:22:14;13.80;;;6.65;;
74100;SDS011;62462;52.530;21.682;2023-01-15T05:24:39;12.13;;;5.97;;
74100;SDS011;62462;52.530;21.682;2023-01-15T05:27:05;12.48;;;5.90;;
74100;SDS011;62462;52.530;21.682;2023-01-15T05:29:31;8.88;;;4.30;;
74100;SDS011;62462;52.530;21.682;2023-01-15T05:31:57;9.32;;;4.20;;
74100;SDS011;62462;52.530;21.682;2023-01-15T05:34:22;8.73;;;4.30;;
74100;SDS011;62462;52.530;21.682;2023-01-15T05:36:48;8.20;;;4.40;;
74100;SDS011;62462;52.530;21.682;2023-01-15T05:39:14;7.55;;;4.38;;
74100;SDS011;62462;52.530;21.682;2023-01-15T05:41:40;10.15;;;4.80;;
74100;SDS011;62462;52.530;21.682;2023-01-15T05:44:25;10.73;;;4.68;;
74100;SDS011;62462;52.530;21.682;2023-01-15T05:46:53;8.30;;;4.18;;
74100;SDS011;62462;52.530;21.682;2023-01-15T05:49:22;10.73;;;4.55;;
74100;SDS011;62462;52.530;21.682;2023-01-15T05:51:49;11.05;;;4.60;;
74100;SDS011;62462;52.530;21.682;2023-01-15T05:54:17;10.02;;;4.43;;
74100;SDS011;62462;52.530;21.682;2023-01-15T05:56:50;13.50;;;7.15;;
74100;SDS011;62462;52.530;21.682;2023-01-15T05:59:16;9.02;;;4.93;;
74100;SDS011;62462;52.530;21.682;2023-01-15T06:01:44;6.88;;;4.15;;
74100;SDS011;62462;52.530;21.682;2023-01-15T06:04:10;8.27;;;4.20;;
74100;SDS011;62462;52.530;21.682;2023-01-15T06:06:38;7.72;;;3.95;;
74100;SDS011;62462;52.530;21.682;2023-01-15T06:09:04;10.48;;;4.35;;
74100;SDS011;62462;52.530;21.682;2023-01-15T06:11:30;9.38;;;4.40;;
74100;SDS011;62462;52.530;21.682;2023-01-15T06:13:56;7.18;;;4.05;;
74100;SDS011;62462;52.530;21.682;2023-01-15T06:16:22;7.10;;;4.00;;
74100;SDS011;62462;52.530;21.682;2023-01-15T06:18:48;7.45;;;4.03;;
74100;SDS011;62462;52.530;21.682;2023-01-15T06:21:14;7.25;;;3.90;;
74100;SDS011;62462;52.530;21.682;2023-01-15T06:23:41;9.23;;;4.28;;
74100;SDS011;62462;52.530;21.682;2023-01-15T06:26:11;9.18;;;3.70;;
74100;SDS011;62462;52.530;21.682;2023-01-15T06:28:39;7.18;;;3.60;;
74100;SDS011;62462;52.530;21.682;2023-01-15T06:31:05;7.63;;;3.80;;
74100;SDS011;62462;52.530;21.682;2023-01-15T06:33:36;6.38;;;3.42;;
74100;SDS011;62462;52.530;21.682;2023-01-15T06:36:05;11.07;;;3.67;;
74100;SDS011;62462;52.530;21.682;2023-01-15T06:38:42;6.38;;;3.92;;
74100;SDS011;62462;52.530;21.682;2023-01-15T06:41:22;6.35;;;3.70;;
74100;SDS011;62462;52.530;21.682;2023-01-15T06:44:15;6.75;;;3.45;;
74100;SDS011;62462;52.530;21.682;2023-01-15T06:47:16;6.03;;;3.08;;
74100;SDS011;62462;52.530;21.682;2023-01-15T06:49:46;6.95;;;3.30;;
74100;SDS011;62462;52.530;21.682;2023-01-15T06:52:13;7.88;;;3.40;;
74100;SDS011;62462;52.530;21.682;2023-01-15T06:54:38;6.88;;;3.47;;
74100;SDS011;62462;52.530;21.682;2023-01-15T06:57:04;7.85;;;3.60;;
74100;SDS011;62462;52.530;21.682;2023-01-15T06:59:30;8.13;;;3.65;;
74100;SDS011;62462;52.530;21.682;2023-01-15T07:01:57;6.35;;;2.88;;
74100;SDS011;62462;52.530;21.682;2023-01-15T07:04:22;6.90;;;3.30;;
74100;SDS011;62462;52.530;21.682;2023-01-15T07:06:48;6.30;;;3.20;;
74100;SDS011;62462;52.530;21.682;2023-01-15T07:09:14;6.25;;;3.22;;
74100;SDS011;62462;52.530;21.682;2023-01-15T07:11:40;5.28;;;2.85;;
74100;SDS011;62462;52.530;21.682;2023-01-15T07:14:18;5.50;;;3.03;;
74100;SDS011;62462;52.530;21.682;2023-01-15T07:19:15;6.82;;;3.13;;
74100;SDS011;62462;52.530;21.682;2023-01-15T07:21:42;5.22;;;2.90;;
74100;SDS011;62462;52.530;21.682;2023-01-15T07:24:08;6.50;;;3.17;;
74100;SDS011;62462;52.530;21.682;2023-01-15T07:26:35;7.13;;;2.85;;
74100;SDS011;62462;52.530;21.682;2023-01-15T07:29:02;5.07;;;2.90;;
74100;SDS011;62462;52.530;21.682;2023-01-15T07:31:28;5.90;;;2.50;;
74100;SDS011;62462;52.530;21.682;2023-01-15T07:33:57;5.32;;;2.80;;
74100;SDS011;62462;52.530;21.682;2023-01-15T07:36:23;5.35;;;2.67;;
74100;SDS011;62462;52.530;21.682;2023-01-15T07:38:49;4.35;;;2.63;;
74100;SDS011;62462;52.530;21.682;2023-01-15T07:41:15;6.25;;;3.17;;
74100;SDS011;62462;52.530;21.682;2023-01-15T07:46:43;5.63;;;2.90;;
74100;SDS011;62462;52.530;21.682;2023-01-15T07:49:27;5.38;;;3.10;;
74100;SDS011;62462;52.530;21.682;2023-01-15T07:52:16;6.38;;;2.40;;
74100;SDS011;62462;52.530;21.682;2023-01-15T07:54:44;6.35;;;3.00;;
74100;SDS011;62462;52.530;21.682;2023-01-15T07:57:11;6.78;;;2.65;;
74100;SDS011;62462;52.530;21.682;2023-01-15T07:59:45;5.57;;;2.65;;
74100;SDS011;62462;52.530;21.682;2023-01-15T08:02:11;6.10;;;2.78;;
74100;SDS011;62462;52.530;21.682;2023-01-15T08:04:37;8.68;;;3.13;;
74100;SDS011;62462;52.530;21.682;2023-01-15T08:07:03;5.25;;;3.00;;
74100;SDS011;62462;52.530;21.682;2023-01-15T08:09:29;5.60;;;2.80;;
74100;SDS011;62462;52.530;21.682;2023-01-15T08:11:57;5.78;;;2.75;;
74100;SDS011;62462;52.530;21.682;2023-01-15T08:14:42;8.48;;;3.28;;
74100;SDS011;62462;52.530;21.682;2023-01-15T08:17:27;7.18;;;3.17;;
74100;SDS011;62462;52.530;21.682;2023-01-15T08:19:53;4.20;;;2.78;;
74100;SDS011;62462;52.530;21.682;2023-01-15T08:22:18;4.68;;;2.72;;
74100;SDS011;62462;52.530;21.682;2023-01-15T08:24:44;7.40;;;2.95;;
74100;SDS011;62462;52.530;21.682;2023-01-15T08:27:10;6.10;;;2.85;;
74100;SDS011;62462;52.530;21.682;2023-01-15T08:29:37;5.28;;;2.95;;
74100;SDS011;62462;52.530;21.682;2023-01-15T08:32:03;5.75;;;2.92;;
74100;SDS011;62462;52.530;21.682;2023-01-15T08:34:29;4.18;;;2.55;;
74100;SDS011;62462;52.530;21.682;2023-01-15T08:36:55;4.68;;;2.40;;
74100;SDS011;62462;52.530;21.682;2023-01-15T08:39:24;5.97;;;2.72;;
74100;SDS011;62462;52.530;21.682;2023-01-15T08:41:51;6.07;;;3.10;;
74100;SDS011;62462;52.530;21.682;2023-01-15T08:44:17;6.05;;;2.60;;
74100;SDS011;62462;52.530;21.682;2023-01-15T08:46:45;5.28;;;2.35;;
74100;SDS011;62462;52.530;21.682;2023-01-15T08:49:12;6.63;;;3.13;;
74100;SDS011;62462;52.530;21.682;2023-01-15T08:51:38;6.15;;;3.00;;
74100;SDS011;62462;52.530;21.682;2023-01-15T08:54:04;7.40;;;2.67;;
74100;SDS011;62462;52.530;21.682;2023-01-15T08:56:30;11.43;;;5.57;;
74100;SDS011;62462;52.530;21.682;2023-01-15T08:58:55;6.97;;;2.95;;
74100;SDS011;62462;52.530;21.682;2023-01-15T09:01:21;9.13;;;4.25;;
74100;SDS011;62462;52.530;21.682;2023-01-15T09:03:47;6.18;;;3.10;;
74100;SDS011;62462;52.530;21.682;2023-01-15T09:06:13;7.38;;;3.10;;
74100;SDS011;62462;52.530;21.682;2023-01-15T09:08:38;7.10;;;3.42;;
74100;SDS011;62462;52.530;21.682;2023-01-15T09:11:06;6.68;;;3.22;;
74100;SDS011;62462;52.530;21.682;2023-01-15T09:13:34;6.60;;;3.15;;
74100;SDS011;62462;52.530;21.682;2023-01-15T09:16:02;5.90;;;3.58;;
74100;SDS011;62462;52.530;21.682;2023-01-15T09:18:29;6.70;;;3.30;;
74100;SDS011;62462;52.530;21.682;2023-01-15T09:20:55;5.60;;;2.95;;
74100;SDS011;62462;52.530;21.682;2023-01-15T09:23:21;6.30;;;3.15;;
74100;SDS011;62462;52.530;21.682;2023-01-15T09:25:51;5.32;;;3.10;;
74100;SDS011;62462;52.530;21.682;2023-01-15T09:28:17;5.88;;;3.25;;
74100;SDS011;62462;52.530;21.682;2023-01-15T09:30:43;6.45;;;3.05;;
74100;SDS011;62462;52.530;21.682;2023-01-15T09:33:08;8.88;;;3.30;;
74100;SDS011;62462;52.530;21.682;2023-01-15T09:35:35;6.30;;;3.20;;
74100;SDS011;62462;52.530;21.682;2023-01-15T09:38:01;4.85;;;3.05;;
74100;SDS011;62462;52.530;21.682;2023-01-15T09:46:15;6.40;;;3.03;;
74100;SDS011;62462;52.530;21.682;2023-01-15T09:49:15;7.50;;;3.22;;
74100;SDS011;62462;52.530;21.682;2023-01-15T09:52:12;7.97;;;3.30;;
74100;SDS011;62462;52.530;21.682;2023-01-15T09:55:18;7.53;;;3.35;;
74100;SDS011;62462;52.530;21.682;2023-01-15T09:57:48;6.53;;;3.13;;
74100;SDS011;62462;52.530;21.682;2023-01-15T10:00:17;7.15;;;4.00;;
74100;SDS011;62462;52.530;21.682;2023-01-15T10:02:47;6.47;;;3.30;;
74100;SDS011;62462;52.530;21.682;2023-01-15T10:05:30;6.07;;;3.25;;
74100;SDS011;62462;52.530;21.682;2023-01-15T10:07:59;11.73;;;3.58;;
74100;SDS011;62462;52.530;21.682;2023-01-15T10:10:41;7.10;;;3.47;;
74100;SDS011;62462;52.530;21.682;2023-01-15T10:15:54;7.80;;;3.33;;
74100;SDS011;62462;52.530;21.682;2023-01-15T10:18:22;7.28;;;3.40;;
74100;SDS011;62462;52.530;21.682;2023-01-15T10:23:54;6.40;;;3.70;;
74100;SDS011;62462;52.530;21.682;2023-01-15T10:26:31;6.80;;;3.92;;
74100;SDS011;62462;52.530;21.682;2023-01-15T10:37:40;6.93;;;3.55;;
74100;SDS011;62462;52.530;21.682;2023-01-15T10:45:21;7.55;;;3.67;;
74100;SDS011;62462;52.530;21.682;2023-01-15T10:47:53;12.25;;;5.70;;
74100;SDS011;62462;52.530;21.682;2023-01-15T10:50:25;8.43;;;3.75;;
74100;SDS011;62462;52.530;21.682;2023-01-15T10:55:27;18.60;;;8.52;;
74100;SDS011;62462;52.530;21.682;2023-01-15T10:58:04;11.18;;;4.63;;
74100;SDS011;62462;52.530;21.682;2023-01-15T11:00:59;9.20;;;4.00;;
74100;SDS011;62462;52.530;21.682;2023-01-15T11:03:40;7.88;;;3.55;;
74100;SDS011;62462;52.530;21.682;2023-01-15T11:06:14;7.68;;;3.95;;
74100;SDS011;62462;52.530;21.682;2023-01-15T11:08:43;9.70;;;3.85;;
74100;SDS011;62462;52.530;21.682;2023-01-15T11:13:55;8.27;;;4.05;;
74100;SDS011;62462;52.530;21.682;2023-01-15T11:16:40;8.93;;;3.92;;
74100;SDS011;62462;52.530;21.682;2023-01-15T11:19:30;8.48;;;3.70;;
74100;SDS011;62462;52.530;21.682;2023-01-15T11:22:04;9.60;;;4.40;;
74100;SDS011;62462;52.530;21.682;2023-01-15T11:24:57;9.32;;;3.88;;
74100;SDS011;62462;52.530;21.682;2023-01-15T11:27:29;7.57;;;4.00;;
74100;SDS011;62462;52.530;21.682;2023-01-15T11:30:00;7.18;;;3.50;;
74100;SDS011;62462;52.530;21.682;2023-01-15T11:32:29;7.72;;;3.95;;
74100;SDS011;62462;52.530;21.682;2023-01-15T11:37:45;10.02;;;4.70;;
74100;SDS011;62462;52.530;21.682;2023-01-15T11:40:18;8.07;;;3.85;;
74100;SDS011;62462;52.530;21.682;2023-01-15T11:42:48;9.40;;;4.25;;
74100;SDS011;62462;52.530;21.682;2023-01-15T11:45:33;11.32;;;4.35;;
74100;SDS011;62462;52.530;21.682;2023-01-15T11:48:28;8.52;;;4.13;;
74100;SDS011;62462;52.530;21.682;2023-01-15T11:51:12;7.63;;;3.95;;
74100;SDS011;62462;52.530;21.682;2023-01-15T11:53:59;13.32;;;5.85;;
74100;SDS011;62462;52.530;21.682;2023-01-15T11:56:29;8.95;;;4.20;;
74100;SDS011;62462;52.530;21.682;2023-01-15T11:58:56;13.00;;;5.45;;
74100;SDS011;62462;52.530;21.682;2023-01-15T12:01:34;8.10;;;3.85;;
74100;SDS011;62462;52.530;21.682;2023-01-15T12:04:19;9.50;;;4.20;;
74100;SDS011;62462;52.530;21.682;2023-01-15T12:07:13;7.32;;;3.92;;
74100;SDS011;62462;52.530;21.682;2023-01-15T12:29:46;9.50;;;4.40;;
74100;SDS011;62462;52.530;21.682;2023-01-15T12:32:19;9.60;;;4.30;;
74100;SDS011;62462;52.530;21.682;2023-01-15T12:34:57;10.48;;;4.32;;
74100;SDS011;62462;52.530;21.682;2023-01-15T12:37:34;13.88;;;5.15;;
74100;SDS011;62462;52.530;21.682;2023-01-15T12:40:16;11.85;;;4.93;;
74100;SDS011;62462;52.530;21.682;2023-01-15T12:42:54;12.10;;;5.45;;
74100;SDS011;62462;52.530;21.682;2023-01-15T12:45:40;11.43;;;5.68;;
74100;SDS011;62462;52.530;21.682;2023-01-15T12:51:07;11.88;;;5.32;;
74100;SDS011;62462;52.530;21.682;2023-01-15T12:53:42;10.70;;;4.88;;
74100;SDS011;62462;52.530;21.682;2023-01-15T12:59:09;9.50;;;4.90;;
74100;SDS011;62462;52.530;21.682;2023-01-15T13:04:43;11.13;;;4.85;;
74100;SDS011;62462;52.530;21.682;2023-01-15T13:10:08;10.00;;;5.00;;
74100;SDS011;62462;52.530;21.682;2023-01-15T13:12:40;8.05;;;4.47;;
74100;SDS011;62462;52.530;21.682;2023-01-15T13:15:06;11.05;;;4.90;;
74100;SDS011;62462;52.530;21.682;2023-01-15T13:28:20;8.35;;;4.28;;
74100;SDS011;62462;52.530;21.682;2023-01-15T13:34:18;11.80;;;5.22;;
74100;SDS011;62462;52.530;21.682;2023-01-15T13:36:57;12.52;;;6.07;;
74100;SDS011;62462;52.530;21.682;2023-01-15T13:39:32;9.43;;;5.17;;
74100;SDS011;62462;52.530;21.682;2023-01-15T13:42:10;8.95;;;4.85;;
74100;SDS011;62462;52.530;21.682;2023-01-15T13:48:03;14.68;;;5.30;;
74100;SDS011;62462;52.530;21.682;2023-01-15T13:50:41;9.70;;;5.15;;
74100;SDS011;62462;52.530;21.682;2023-01-15T13:56:00;12.38;;;5.18;;
74100;SDS011;62462;52.530;21.682;2023-01-15T13:58:33;13.23;;;5.68;;
74100;SDS011;62462;52.530;21.682;2023-01-15T14:01:04;9.32;;;5.05;;
74100;SDS011;62462;52.530;21.682;2023-01-15T14:03:33;14.15;;;5.93;;
74100;SDS011;62462;52.530;21.682;2023-01-15T14:06:05;11.63;;;5.82;;
74100;SDS011;62462;52.530;21.682;2023-01-15T14:11:27;10.43;;;5.45;;
74100;SDS011;62462;52.530;21.682;2023-01-15T14:14:03;10.63;;;5.20;;
74100;SDS011;62462;52.530;21.682;2023-01-15T14:16:35;11.25;;;5.72;;
74100;SDS011;62462;52.530;21.682;2023-01-15T14:27:04;12.05;;;5.97;;
74100;SDS011;62462;52.530;21.682;2023-01-15T14:32:30;11.18;;;5.10;;
74100;SDS011;62462;52.530;21.682;2023-01-15T14:35:02;13.80;;;5.95;;
74100;SDS011;62462;52.530;21.682;2023-01-15T14:40:28;11.98;;;5.90;;
74100;SDS011;62462;52.530;21.682;2023-01-15T14:42:57;11.27;;;5.75;;
74100;SDS011;62462;52.530;21.682;2023-01-15T14:45:37;12.48;;;6.00;;
74100;SDS011;62462;52.530;21.682;2023-01-15T14:48:05;12.52;;;5.78;;
74100;SDS011;62462;52.530;21.682;2023-01-15T14:50:53;13.43;;;5.88;;
74100;SDS011;62462;52.530;21.682;2023-01-15T14:56:13;12.68;;;5.95;;
74100;SDS011;62462;52.530;21.682;2023-01-15T14:58:54;12.73;;;6.28;;
74100;SDS011;62462;52.530;21.682;2023-01-15T15:01:53;11.18;;;5.55;;
74100;SDS011;62462;52.530;21.682;2023-01-15T15:04:34;12.77;;;6.90;;
74100;SDS011;62462;52.530;21.682;2023-01-15T15:07:10;10.30;;;5.50;;
74100;SDS011;62462;52.530;21.682;2023-01-15T15:09:39;10.60;;;5.65;;
74100;SDS011;62462;52.530;21.682;2023-01-15T15:12:52;11.57;;;6.25;;
74100;SDS011;62462;52.530;21.682;2023-01-15T15:26:03;12.82;;;5.88;;
74100;SDS011;62462;52.530;21.682;2023-01-15T15:31:26;12.23;;;5.95;;
74100;SDS011;62462;52.530;21.682;2023-01-15T15:33:55;14.27;;;5.53;;
74100;SDS011;62462;52.530;21.682;2023-01-15T15:36:23;11.02;;;5.22;;
74100;SDS011;62462;52.530;21.682;2023-01-15T15:38:52;11.65;;;5.78;;
74100;SDS011;62462;52.530;21.682;2023-01-15T15:41:28;10.43;;;5.40;;
74100;SDS011;62462;52.530;21.682;2023-01-15T15:44:16;9.52;;;5.65;;
74100;SDS011;62462;52.530;21.682;2023-01-15T15:47:17;14.55;;;6.25;;
74100;SDS011;62462;52.530;21.682;2023-01-15T15:50:03;14.00;;;6.95;;
74100;SDS011;62462;52.530;21.682;2023-01-15T15:52:29;12.40;;;6.45;;
74100;SDS011;62462;52.530;21.682;2023-01-15T15:55:00;11.88;;;5.85;;
74100;SDS011;62462;52.530;21.682;2023-01-15T15:57:30;11.95;;;6.00;;
74100;SDS011;62462;52.530;21.682;2023-01-15T15:59:57;13.27;;;5.68;;
74100;SDS011;62462;52.530;21.682;2023-01-15T16:02:33;13.45;;;5.78;;
74100;SDS011;62462;52.530;21.682;2023-01-15T16:05:24;13.05;;;5.72;;
74100;SDS011;62462;52.530;21.682;2023-01-15T16:07:54;12.95;;;6.38;;
74100;SDS011;62462;52.530;21.682;2023-01-15T16:13:00;13.32;;;6.70;;
74100;SDS011;62462;52.530;21.682;2023-01-15T16:15:38;12.35;;;5.97;;
74100;SDS011;62462;52.530;21.682;2023-01-15T16:18:05;13.23;;;6.65;;
74100;SDS011;62462;52.530;21.682;2023-01-15T16:20:42;12.05;;;6.38;;
74100;SDS011;62462;52.530;21.682;2023-01-15T16:23:22;12.15;;;5.95;;
74100;SDS011;62462;52.530;21.682;2023-01-15T16:25:59;11.38;;;5.90;;
74100;SDS011;62462;52.530;21.682;2023-01-15T16:28:28;18.35;;;6.40;;
74100;SDS011;62462;52.530;21.682;2023-01-15T16:31:08;11.32;;;6.13;;
74100;SDS011;62462;52.530;21.682;2023-01-15T16:33:35;11.20;;;5.78;;
74100;SDS011;62462;52.530;21.682;2023-01-15T16:36:02;12.23;;;5.68;;
74100;SDS011;62462;52.530;21.682;2023-01-15T16:38:34;10.38;;;5.32;;
74100;SDS011;62462;52.530;21.682;2023-01-15T16:41:05;12.48;;;6.22;;
74100;SDS011;62462;52.530;21.682;2023-01-15T16:43:31;13.55;;;6.43;;
74100;SDS011;62462;52.530;21.682;2023-01-15T16:46:20;12.13;;;6.65;;
74100;SDS011;62462;52.530;21.682;2023-01-15T16:48:47;17.48;;;6.03;;
74100;SDS011;62462;52.530;21.682;2023-01-15T16:53:48;14.10;;;6.35;;
74100;SDS011;62462;52.530;21.682;2023-01-15T16:56:24;14.23;;;6.18;;
74100;SDS011;62462;52.530;21.682;2023-01-15T16:58:50;13.30;;;5.35;;
74100;SDS011;62462;52.530;21.682;2023-01-15T17:03:54;11.68;;;5.95;;
74100;SDS011;62462;52.530;21.682;2023-01-15T17:06:21;12.43;;;6.10;;
74100;SDS011;62462;52.530;21.682;2023-01-15T17:08:50;13.15;;;6.10;;
74100;SDS011;62462;52.530;21.682;2023-01-15T17:11:27;12.95;;;6.00;;
74100;SDS011;62462;52.530;21.682;2023-01-15T17:14:17;11.35;;;6.15;;
74100;SDS011;62462;52.530;21.682;2023-01-15T17:16:48;11.43;;;5.68;;
74100;SDS011;62462;52.530;21.682;2023-01-15T17:19:34;12.93;;;6.22;;
74100;SDS011;62462;52.530;21.682;2023-01-15T17:21:59;12.80;;;6.20;;
74100;SDS011;62462;52.530;21.682;2023-01-15T17:24:25;13.13;;;5.97;;
74100;SDS011;62462;52.530;21.682;2023-01-15T17:26:51;13.13;;;6.25;;
74100;SDS011;62462;52.530;21.682;2023-01-15T17:29:17;14.63;;;6.70;;
74100;SDS011;62462;52.530;21.682;2023-01-15T17:31:42;14.35;;;6.35;;